Terminal Aerodrome Forecast
Issued by NWS

Home | Current Version | Previous Version | Text Only | Print | Product List | Glossary On
Versions: 1 2 3 4 5 6 7 8 9 10 11 12 13 14 15 16
630
FTUS45 KABQ 070526
TAFTCC
TAF
KTCC 070526Z 0706/0806 27007KT P6SM SKC
     FM071500 03010KT P6SM SKC
     FM072100 08008KT P6SM SKC=

USA.gov is the U.S. government's official web portal to all federal, state and local government web resources and services.